Yellowstone National Park, WY (82190)

10:25 AM MST die 19o December, anno 2014 (GMT -0700)
RAWS GREBE WY US | Change Station
CLOSE
Current Station
Personal Weather Stations
Location: Yellowstone National Park, WY
Elevation: 7899 ft
Nearby Weather Stations
Active Advisory: Winter Storm Watch

Elev 7899 ft 44.72 °N, 110.51 °W | Updated 36 minutes ago

Partialiter Nubila
Partialiter Nubila
25 °F
Feels Like 25 °F
N
1
Ventus Variabilis Ventus from Inter Austrum et Zephyrum
Gusts 5.0 mph

Hodie
High -- | Low -- °F
--% Chance of Precip.
Yesterday
High -- | Low -- °F
Precip. -- in
7:55 AM 4:42 PM
Waning Crescent, 7% visible
Pressio 30.14 in
Visibilitas -9999.0 milia passuum
Clouds
Frigus Venti 25 °F
Frigus in quo Ros apparet 21 °F
Umor 85%
Rainfall 0.00 in
Snow Depth Not available.
UV Not available.
Pollen .10 out of 12
Air Quality Not available.
Flu Activity Not available.
METAR KP60 191656Z AUTO VRB03KT M03/M06 A3007 RMK AO1 SLP206 T10331061

More Conditions Fewer Conditions

Pressio 30.14 in
Visibilitas -9999.0 milia passuum
Clouds
Frigus Venti 25 °F
Frigus in quo Ros apparet 21 °F
Umor 85%
Rainfall 0.00 in
Snow Depth Not available.
UV Not available.
Pollen .10 out of 12
Air Quality Not available.
Flu Activity Not available.
METAR KP60 191656Z AUTO VRB03KT M03/M06 A3007 RMK AO1 SLP206 T10331061

More Conditions Fewer Conditions

10-Day Weather Forecast

Almanac

Astronomy

Dec. 19, 2014 Rise Set
Actual Time
Civil Twilight
Nautical Twilight
Astronomical Twilight
Moon
Length Of Visible Light
Length of Day
Tomorrow will be .
, % of the Moon is Illuminated

Today's Extremes

State Highs State Lows

Community

WunderPhotos

Upload Photos

1,779,007 photos uploaded!

WunderBlogs® & News

Nearby

Air Quality

  Air Quality AQ Index Pollutant
Not available.

Snow Depth

Station Depth Elevation

Earthquake Activity

City Distance Mag. Time & Date
Minimum magnitude displayed is 2.5.

Coastal Water Temperatures

Locus Calor

Nearby Weather Stations